createdAt,value
2023-03-07T00:00:50.657Z,98651.75
2023-03-07T00:03:55.836Z,98655.59
2023-03-07T00:06:59.130Z,98659.19
2023-03-07T00:10:01.003Z,98652.22
2023-03-07T00:13:04.197Z,98650.69
2023-03-07T00:16:13.594Z,98649.25
2023-03-07T00:19:18.859Z,98658.22
2023-03-07T00:22:20.759Z,98646.25
2023-03-07T00:25:25.610Z,98647.94
2023-03-07T00:28:28.107Z,98649.59
2023-03-07T00:31:30.970Z,98646.13
2023-03-07T00:34:32.947Z,98641.81
2023-03-07T00:37:34.894Z,98648.66
2023-03-07T00:40:36.795Z,98646.84
2023-03-07T00:43:38.959Z,98644.09
2023-03-07T00:46:40.812Z,98637.84
2023-03-07T00:49:43.621Z,98635.94
2023-03-07T00:52:45.600Z,98634.97
2023-03-07T00:56:01.223Z,98631.63
2023-03-07T00:59:05.260Z,98627.91
2023-03-07T01:02:07.531Z,98634.72
2023-03-07T01:05:10.019Z,98629.47
2023-03-07T01:08:14.846Z,98629.47
2023-03-07T01:11:17.628Z,98628.50
2023-03-07T01:14:19.630Z,98616.41
2023-03-07T01:17:21.489Z,98626.94
2023-03-07T01:20:23.338Z,98620.13
2023-03-07T01:23:25.554Z,98615.81
2023-03-07T01:26:30.827Z,98616.03
2023-03-07T01:29:33.861Z,98620.25
2023-03-07T01:32:35.843Z,98621.19
2023-03-07T01:35:39.881Z,98612.44
2023-03-07T01:38:41.771Z,98612.44
2023-03-07T01:41:45.968Z,98616.88
2023-03-07T01:45:05.135Z,98622.16
2023-03-07T01:48:27.454Z,98611.13
2023-03-07T01:51:32.028Z,98619.03
2023-03-07T01:54:42.232Z,98617.50
2023-03-07T01:57:50.065Z,98608.63
2023-03-07T02:00:52.170Z,98616.53
2023-03-07T02:04:01.954Z,98612.94
2023-03-07T02:07:04.193Z,98619.28
2023-03-07T02:10:08.113Z,98609.34
2023-03-07T02:13:10.650Z,98617.25
2023-03-07T02:16:14.102Z,98616.66
2023-03-07T02:19:30.537Z,98610.06
2023-03-07T02:22:32.587Z,98610.44
2023-03-07T02:26:00.719Z,98609.34
2023-03-07T02:29:03.287Z,98600.97
2023-03-07T02:32:09.184Z,98601.94
2023-03-07T02:35:23.745Z,98596.09
2023-03-07T02:38:31.079Z,98595.72
2023-03-07T02:41:36.061Z,98589.00
2023-03-07T02:44:47.779Z,98581.34
2023-03-07T02:47:51.760Z,98585.19
2023-03-07T02:50:53.959Z,98588.88
2023-03-07T02:53:56.252Z,98586.38
2023-03-07T02:56:58.650Z,98582.19
2023-03-07T03:00:00.929Z,98575.59
2023-03-07T03:03:03.469Z,98580.38
2023-03-07T03:06:05.664Z,98576.19
2023-03-07T03:09:07.758Z,98580.59
2023-03-07T03:12:09.783Z,98578.94
2023-03-07T03:15:12.744Z,98575.56
2023-03-07T03:18:15.222Z,98572.22
2023-03-07T03:21:17.085Z,98568.88
2023-03-07T03:24:19.152Z,98569.09
2023-03-07T03:27:22.672Z,98561.44
2023-03-07T03:30:30.611Z,98562.38
2023-03-07T03:33:33.190Z,98567.06
2023-03-07T03:36:37.672Z,98570.03
2023-03-07T03:39:42.849Z,98561.41
2023-03-07T03:42:47.349Z,98568.69
2023-03-07T03:45:56.251Z,98564.38
2023-03-07T03:48:59.418Z,98558.63
2023-03-07T03:52:02.546Z,98553.50
2023-03-07T03:55:11.301Z,98566.66
2023-03-07T03:58:13.267Z,98553.50
2023-03-07T04:01:15.429Z,98553.59
2023-03-07T04:04:19.775Z,98553.72
2023-03-07T04:07:22.305Z,98545.81
2023-03-07T04:10:24.984Z,98546.06
2023-03-07T04:13:27.271Z,98547.25
2023-03-07T04:16:29.253Z,98537.78
2023-03-07T04:19:33.450Z,98547.69
2023-03-07T04:22:35.601Z,98540.88
2023-03-07T04:25:37.819Z,98540.75
2023-03-07T04:28:45.293Z,98539.94
2023-03-07T04:31:51.794Z,98547.22
2023-03-07T04:34:53.719Z,98549.00
2023-03-07T04:37:55.602Z,98552.09
2023-03-07T04:40:57.636Z,98548.16
2023-03-07T04:43:59.771Z,98539.09
2023-03-07T04:47:04.278Z,98548.44
2023-03-07T04:50:10.621Z,98550.59
2023-03-07T04:53:14.120Z,98551.19
2023-03-07T04:56:16.465Z,98553.59
2023-03-07T04:59:21.385Z,98545.59
2023-03-07T05:02:26.890Z,98554.94
2023-03-07T05:05:29.410Z,98557.94
2023-03-07T05:08:31.988Z,98567.50
2023-03-07T05:11:33.965Z,98567.28
2023-03-07T05:14:36.153Z,98567.16
2023-03-07T05:17:38.089Z,98578.91
2023-03-07T05:20:43.205Z,98575.94
2023-03-07T05:23:45.319Z,98576.19
2023-03-07T05:26:48.602Z,98570.44
2023-03-07T05:29:50.520Z,98578.00
2023-03-07T05:32:52.571Z,98577.16
2023-03-07T05:35:55.713Z,98579.19
2023-03-07T05:38:58.805Z,98573.34
2023-03-07T05:42:02.979Z,98577.00
2023-03-07T05:45:06.555Z,98583.47
2023-03-07T05:48:08.540Z,98585.03
2023-03-07T05:51:11.338Z,98583.34
2023-03-07T05:54:13.733Z,98587.19
2023-03-07T05:57:15.722Z,98587.66
2023-03-07T06:00:21.330Z,98579.00
2023-03-07T06:03:29.826Z,98578.88
2023-03-07T06:06:31.794Z,98578.97
2023-03-07T06:09:35.994Z,98580.09
2023-03-07T06:12:38.206Z,98587.47
2023-03-07T06:15:40.214Z,98574.81
2023-03-07T06:18:42.465Z,98578.06
2023-03-07T06:21:44.943Z,98576.91
2023-03-07T06:24:48.689Z,98572.16
2023-03-07T06:27:53.021Z,98570.91
2023-03-07T06:30:56.588Z,98564.84
2023-03-07T06:34:01.309Z,98559.88
2023-03-07T06:37:03.507Z,98562.00
2023-03-07T06:40:06.499Z,98559.53
2023-03-07T06:43:12.434Z,98561.94
2023-03-07T06:46:14.444Z,98559.84
2023-03-07T06:49:21.449Z,98551.59
2023-03-07T06:52:25.338Z,98546.56
2023-03-07T06:55:27.866Z,98544.28
2023-03-07T06:58:29.810Z,98539.63
2023-03-07T07:01:35.738Z,98539.63
2023-03-07T07:04:38.101Z,98537.59
2023-03-07T07:07:40.079Z,98540.38
2023-03-07T07:10:42.756Z,98534.56
2023-03-07T07:13:45.977Z,98531.22
2023-03-07T07:16:51.882Z,98531.34
2023-03-07T07:19:54.798Z,98518.13
2023-03-07T07:22:56.920Z,98522.03
2023-03-07T07:25:58.919Z,98523.91
2023-03-07T07:29:01.196Z,98517.84
2023-03-07T07:32:03.517Z,98514.72
2023-03-07T07:35:06.132Z,98507.75
2023-03-07T07:38:08.228Z,98503.69
2023-03-07T07:41:15.727Z,98509.28
2023-03-07T07:44:17.884Z,98510.56
2023-03-07T07:47:33.072Z,98509.16
2023-03-07T07:50:35.243Z,98508.56
2023-03-07T07:53:37.169Z,98502.97
2023-03-07T07:56:39.343Z,98505.78
2023-03-07T07:59:41.272Z,98490.81
2023-03-07T08:02:46.182Z,98497.13
2023-03-07T08:05:49.402Z,98490.13
2023-03-07T08:08:51.963Z,98488.75
2023-03-07T08:11:53.875Z,98489.94
2023-03-07T08:14:58.577Z,98485.38
2023-03-07T08:18:00.460Z,98488.41
2023-03-07T08:21:03.569Z,98485.00
2023-03-07T08:24:05.629Z,98485.59
2023-03-07T08:27:07.567Z,98481.53
2023-03-07T08:30:10.258Z,98481.84
2023-03-07T08:33:12.091Z,98486.00
2023-03-07T08:36:14.372Z,98484.16
2023-03-07T08:39:17.360Z,98485.47
2023-03-07T08:42:19.196Z,98476.19
2023-03-07T08:45:24.451Z,98483.94
2023-03-07T08:48:27.232Z,98475.19
2023-03-07T08:51:29.455Z,98468.13
2023-03-07T08:54:32.589Z,98472.16
2023-03-07T08:57:34.556Z,98479.03
2023-03-07T09:00:37.450Z,98479.09
2023-03-07T09:03:39.356Z,98473.81
2023-03-07T09:06:41.271Z,98472.91
2023-03-07T09:09:43.200Z,98474.53
2023-03-07T09:12:45.060Z,98479.63
2023-03-07T09:15:49.223Z,98475.75
2023-03-07T09:18:52.245Z,98481.28
2023-03-07T09:21:54.014Z,98478.63
2023-03-07T09:25:00.422Z,98490.13
2023-03-07T09:28:02.430Z,98482.13
2023-03-07T09:31:09.235Z,98475.63
2023-03-07T09:34:11.523Z,98476.63
2023-03-07T09:37:13.506Z,98473.94
2023-03-07T09:40:23.560Z,98469.63
2023-03-07T09:43:33.737Z,98460.63
2023-03-07T09:47:29.616Z,98468.16
2023-03-07T09:50:55.145Z,98453.00
2023-03-07T09:54:01.756Z,98448.81
2023-03-07T09:57:05.817Z,98445.34
2023-03-07T10:00:25.775Z,98438.00
2023-03-07T10:03:33.688Z,98442.84
2023-03-07T10:06:39.888Z,98449.47
2023-03-07T10:09:46.818Z,98441.47
2023-03-07T10:13:19.824Z,98438.47
2023-03-07T10:16:31.405Z,98429.81
2023-03-07T10:19:48.538Z,98427.63
2023-03-07T10:23:21.021Z,98426.59
2023-03-07T10:26:38.380Z,98432.44
2023-03-07T10:29:54.111Z,98428.06
2023-03-07T10:33:01.389Z,98421.91
2023-03-07T10:36:15.725Z,98423.91
2023-03-07T10:39:36.774Z,98406.47
2023-03-07T10:42:41.057Z,98396.50
2023-03-07T10:45:42.996Z,98399.97
2023-03-07T10:48:52.192Z,98393.66
2023-03-07T10:52:00.899Z,98389.97
2023-03-07T10:55:40.318Z,98392.28
2023-03-07T10:59:03.694Z,98387.44
2023-03-07T11:02:25.469Z,98385.03
2023-03-07T11:05:32.558Z,98388.16
2023-03-07T11:08:36.290Z,98380.19
2023-03-07T11:11:38.284Z,98382.03
2023-03-07T11:15:10.575Z,98382.34
2023-03-07T11:18:37.685Z,98371.53
2023-03-07T11:21:39.542Z,98368.22
2023-03-07T11:25:00.022Z,98357.75
2023-03-07T11:28:02.032Z,98362.63
2023-03-07T11:31:35.727Z,98363.81
2023-03-07T11:34:59.652Z,98359.47
2023-03-07T11:38:37.222Z,98361.31
2023-03-07T11:41:55.411Z,98351.28
2023-03-07T11:45:35.370Z,98357.09
2023-03-07T11:48:42.852Z,98346.63
2023-03-07T11:51:50.134Z,98361.09
2023-03-07T11:55:10.639Z,98349.94
2023-03-07T11:58:38.862Z,98353.41
2023-03-07T12:02:02.942Z,98358.38
2023-03-07T12:05:23.370Z,98358.38
2023-03-07T12:08:26.296Z,98352.69
2023-03-07T12:11:48.986Z,98345.91
2023-03-07T12:15:05.900Z,98337.81
2023-03-07T12:18:44.020Z,98330.72
2023-03-07T12:22:19.683Z,98331.25
2023-03-07T12:25:48.146Z,98329.59
2023-03-07T12:29:13.318Z,98317.94
2023-03-07T12:32:24.448Z,98320.75
2023-03-07T12:35:49.629Z,98315.44
2023-03-07T12:39:12.194Z,98318.88
2023-03-07T12:42:38.576Z,98320.34
2023-03-07T12:46:25.724Z,98312.19
2023-03-07T12:49:53.525Z,98312.38
2023-03-07T12:53:01.984Z,98308.59
2023-03-07T12:56:30.523Z,98312.78
2023-03-07T12:59:37.211Z,98313.63
2023-03-07T13:02:56.030Z,98303.97
2023-03-07T13:05:58.222Z,98303.97
2023-03-07T13:09:04.139Z,98290.84
2023-03-07T13:12:23.837Z,98282.03
2023-03-07T13:15:47.040Z,98278.38
2023-03-07T13:18:48.998Z,98287.03
2023-03-07T13:21:50.918Z,98279.03
2023-03-07T13:24:56.958Z,98273.41
2023-03-07T13:28:01.257Z,98278.38
2023-03-07T13:31:12.479Z,98277.06
2023-03-07T13:34:48.572Z,98279.22
2023-03-07T13:37:53.612Z,98263.59
2023-03-07T13:41:01.855Z,98270.56
2023-03-07T13:44:03.967Z,98276.22
2023-03-07T13:47:44.362Z,98267.41
2023-03-07T13:50:52.403Z,98268.91
2023-03-07T13:54:01.050Z,98261.91
2023-03-07T13:57:04.348Z,98264.41
2023-03-07T14:00:23.648Z,98267.41
2023-03-07T14:03:30.888Z,98266.56
2023-03-07T14:06:40.950Z,98273.72
2023-03-07T14:09:48.169Z,98261.25
2023-03-07T14:13:01.181Z,98271.22
2023-03-07T14:16:25.227Z,98267.41
2023-03-07T14:19:48.010Z,98268.91
2023-03-07T14:23:26.736Z,98267.72
2023-03-07T14:26:34.645Z,98259.75
2023-03-07T14:29:37.185Z,98261.41
2023-03-07T14:32:41.016Z,98258.38
2023-03-07T14:35:44.722Z,98259.19
2023-03-07T14:38:50.531Z,98258.50
2023-03-07T14:42:04.384Z,98264.16
2023-03-07T14:45:38.745Z,98258.84
2023-03-07T14:48:56.981Z,98262.97
2023-03-07T14:51:59.120Z,98269.47
2023-03-07T14:55:03.883Z,98264.47
2023-03-07T14:58:06.122Z,98263.78
2023-03-07T15:01:17.214Z,98251.66
2023-03-07T15:04:32.632Z,98253.13
2023-03-07T15:07:37.228Z,98256.28
2023-03-07T15:10:44.324Z,98258.28
2023-03-07T15:13:55.181Z,98258.75
2023-03-07T15:17:01.806Z,98259.06
2023-03-07T15:20:09.899Z,98257.41
2023-03-07T15:23:25.420Z,98256.06
2023-03-07T15:26:28.377Z,98256.53
2023-03-07T15:29:30.690Z,98259.84
2023-03-07T15:32:37.115Z,98251.88
2023-03-07T15:35:43.609Z,98258.53
2023-03-07T15:38:46.950Z,98262.84
2023-03-07T15:42:03.370Z,98264.69
2023-03-07T15:45:05.702Z,98272.97
2023-03-07T15:48:29.643Z,98281.09
2023-03-07T15:51:38.580Z,98281.09
2023-03-07T15:54:46.921Z,98284.06
2023-03-07T15:57:57.423Z,98304.47
2023-03-07T16:01:21.936Z,98310.91
2023-03-07T16:04:35.675Z,98308.03
2023-03-07T16:07:37.549Z,98313.13
2023-03-07T16:10:45.881Z,98320.38
2023-03-07T16:13:48.683Z,98313.03
2023-03-07T16:16:50.869Z,98322.59
2023-03-07T16:19:53.902Z,98322.84
2023-03-07T16:22:56.314Z,98326.34
2023-03-07T16:26:02.965Z,98331.72
2023-03-07T16:29:05.413Z,98325.06
2023-03-07T16:32:12.783Z,98320.06
2023-03-07T16:35:17.501Z,98325.91
2023-03-07T16:38:19.741Z,98328.69
2023-03-07T16:41:22.437Z,98328.47
2023-03-07T16:44:27.485Z,98328.25
2023-03-07T16:47:30.031Z,98335.16
2023-03-07T16:50:34.069Z,98325.84
2023-03-07T16:53:39.665Z,98328.47
2023-03-07T16:56:48.377Z,98329.78
2023-03-07T16:59:50.327Z,98325.75
2023-03-07T17:02:54.558Z,98319.75
2023-03-07T17:05:56.512Z,98334.69
2023-03-07T17:08:58.353Z,98322.56
2023-03-07T17:12:00.389Z,98332.03
2023-03-07T17:15:02.707Z,98329.53
2023-03-07T17:18:04.587Z,98330.69
2023-03-07T17:21:06.704Z,98331.66
2023-03-07T17:24:08.741Z,98318.56
2023-03-07T17:27:10.748Z,98325.00
2023-03-07T17:30:25.709Z,98326.50
2023-03-07T17:33:27.563Z,98323.03
2023-03-07T17:36:35.052Z,98330.00
2023-03-07T17:39:40.127Z,98333.47
2023-03-07T17:42:45.212Z,98325.44
2023-03-07T17:45:47.089Z,98330.97
2023-03-07T17:48:48.945Z,98335.28
2023-03-07T17:51:52.969Z,98330.28
2023-03-07T17:54:55.233Z,98324.84
2023-03-07T17:57:57.146Z,98329.31
2023-03-07T18:00:58.982Z,98323.03
2023-03-07T18:04:01.296Z,98330.16
2023-03-07T18:07:03.289Z,98327.34
2023-03-07T18:10:08.685Z,98322.88
2023-03-07T18:13:15.017Z,98327.88
2023-03-07T18:16:16.931Z,98325.38
2023-03-07T18:19:26.391Z,98329.84
2023-03-07T18:22:29.067Z,98328.19
2023-03-07T18:25:30.919Z,98326.19
2023-03-07T18:28:34.555Z,98321.75
2023-03-07T18:31:37.114Z,98318.25
2023-03-07T18:34:39.318Z,98315.44
2023-03-07T18:37:43.542Z,98319.63
2023-03-07T18:40:48.015Z,98322.28
2023-03-07T18:43:50.234Z,98325.91
2023-03-07T18:46:52.208Z,98323.94
2023-03-07T18:49:54.326Z,98321.28
2023-03-07T18:52:56.291Z,98320.97
2023-03-07T18:55:59.224Z,98312.19
2023-03-07T18:59:02.190Z,98313.19
2023-03-07T19:02:04.129Z,98317.50
2023-03-07T19:05:06.487Z,98306.06
2023-03-07T19:08:11.515Z,98321.97
2023-03-07T19:11:16.903Z,98319.47
2023-03-07T19:14:19.049Z,98323.78
2023-03-07T19:17:21.052Z,98321.13
2023-03-07T19:20:23.286Z,98321.13
2023-03-07T19:23:25.650Z,98319.47
2023-03-07T19:26:27.735Z,98321.13
2023-03-07T19:29:29.628Z,98317.50
2023-03-07T19:32:34.139Z,98318.47
2023-03-07T19:35:39.300Z,98315.81
2023-03-07T19:38:41.976Z,98318.63
2023-03-07T19:41:47.968Z,98315.00
2023-03-07T19:44:49.922Z,98312.50
2023-03-07T19:47:52.039Z,98311.50
2023-03-07T19:50:56.464Z,98317.13
2023-03-07T19:53:58.759Z,98311.97
2023-03-07T19:57:03.825Z,98312.78
2023-03-07T20:00:06.545Z,98305.00
2023-03-07T20:03:15.304Z,98313.09
2023-03-07T20:06:29.940Z,98304.16
2023-03-07T20:09:31.892Z,98307.78
2023-03-07T20:12:33.873Z,98312.13
2023-03-07T20:15:36.059Z,98311.13
2023-03-07T20:18:42.943Z,98320.06
2023-03-07T20:21:49.910Z,98317.56
2023-03-07T20:24:54.347Z,98321.34
2023-03-07T20:27:56.229Z,98330.28
2023-03-07T20:30:58.424Z,98328.78
2023-03-07T20:34:02.419Z,98336.03
2023-03-07T20:37:04.306Z,98327.41
2023-03-07T20:40:09.469Z,98333.69
2023-03-07T20:43:11.283Z,98329.38
2023-03-07T20:46:18.162Z,98323.91
2023-03-07T20:49:20.050Z,98330.22
2023-03-07T20:52:23.703Z,98332.84
2023-03-07T20:55:26.527Z,98339.81
2023-03-07T20:58:33.833Z,98329.38
2023-03-07T21:01:36.320Z,98335.50
2023-03-07T21:04:38.255Z,98339.44
2023-03-07T21:07:42.362Z,98332.22
2023-03-07T21:10:45.471Z,98344.50
2023-03-07T21:13:49.754Z,98334.19
2023-03-07T21:16:51.500Z,98338.81
2023-03-07T21:19:55.627Z,98339.81
2023-03-07T21:22:57.541Z,98345.41
2023-03-07T21:26:09.036Z,98337.88
2023-03-07T21:29:11.024Z,98341.38
2023-03-07T21:32:15.415Z,98339.84
2023-03-07T21:35:17.394Z,98351.97
2023-03-07T21:38:19.204Z,98344.31
2023-03-07T21:41:29.679Z,98351.59
2023-03-07T21:44:33.050Z,98344.91
2023-03-07T21:47:34.994Z,98348.09
2023-03-07T21:50:38.278Z,98351.59
2023-03-07T21:53:40.693Z,98357.03
2023-03-07T21:56:45.134Z,98352.72
2023-03-07T21:59:47.028Z,98356.19
2023-03-07T22:02:48.906Z,98363.16
2023-03-07T22:05:51.323Z,98367.63
2023-03-07T22:08:55.823Z,98364.13
2023-03-07T22:11:57.791Z,98357.19
2023-03-07T22:14:59.618Z,98353.69
2023-03-07T22:18:01.536Z,98354.66
2023-03-07T22:21:14.315Z,98360.13
2023-03-07T22:24:16.350Z,98361.53
2023-03-07T22:27:22.454Z,98362.38
2023-03-07T22:30:24.306Z,98364.78
2023-03-07T22:33:26.118Z,98365.22
2023-03-07T22:36:29.062Z,98371.09
2023-03-07T22:39:30.921Z,98378.78
2023-03-07T22:42:32.789Z,98382.69
2023-03-07T22:45:37.090Z,98385.63
2023-03-07T22:48:39.153Z,98378.66
2023-03-07T22:51:41.074Z,98388.41
2023-03-07T22:54:43.648Z,98386.75
2023-03-07T22:57:45.611Z,98387.59
2023-03-07T23:00:49.838Z,98391.22
2023-03-07T23:03:55.114Z,98397.34
2023-03-07T23:06:57.136Z,98394.44
2023-03-07T23:09:58.991Z,98400.97
2023-03-07T23:13:00.907Z,98399.00
2023-03-07T23:16:13.590Z,98401.53
2023-03-07T23:19:15.938Z,98399.84
2023-03-07T23:22:25.598Z,98395.25
2023-03-07T23:25:27.473Z,98397.59
2023-03-07T23:28:29.345Z,98391.31
2023-03-07T23:31:34.315Z,98396.34
2023-03-07T23:34:36.164Z,98399.97
2023-03-07T23:37:38.123Z,98402.63
2023-03-07T23:40:39.974Z,98393.69
2023-03-07T23:43:42.146Z,98390.22
2023-03-07T23:46:43.990Z,98392.03
2023-03-07T23:49:45.878Z,98392.03
2023-03-07T23:52:51.504Z,98387.84
2023-03-07T23:55:59.932Z,98388.81
2023-03-07T23:59:01.790Z,98382.69
